Time;durP1;ratioP1;P1;durP2;ratioP2;P2;SDS_P1;SDS_P2;PMS_P1;PMS_P2;Temp;Humidity;BMP_temperature;BMP_pressure;BME280_temperature;BME280_humidity;BME280_pressure;Samples;Min_cycle;Max_cycle;Signal;HPM_P1;HPM_P2
2023/12/02 00:01:11;;;;;;;0.57;0.57;;;0.40;99.90;;;;;;5036786;28;20909;-78
2023/12/02 00:03:38;;;;;;;3.43;2.30;;;0.30;99.90;;;;;;5036866;28;20792;-78
2023/12/02 00:06:05;;;;;;;5.00;1.33;;;0.20;99.90;;;;;;5036716;28;20494;-78
2023/12/02 00:08:32;;;;;;;1.87;1.70;;;0.30;99.90;;;;;;5036818;28;20439;-78
2023/12/02 00:10:58;;;;;;;4.80;1.03;;;0.30;99.90;;;;;;5037071;28;20935;-78
2023/12/02 00:13:26;;;;;;;3.00;1.60;;;0.30;99.90;;;;;;5036776;28;20854;-78
2023/12/02 00:15:53;;;;;;;6.33;1.07;;;0.30;99.90;;;;;;5037327;28;20478;-78
2023/12/02 00:18:20;;;;;;;2.33;0.77;;;0.40;99.90;;;;;;5036141;28;20440;-78
2023/12/02 00:20:47;;;;;;;1.53;1.00;;;0.40;99.90;;;;;;5036483;28;20482;-78
2023/12/02 00:23:14;;;;;;;3.70;1.33;;;0.30;99.90;;;;;;5035827;28;20961;-78
2023/12/02 00:25:40;;;;;;;0.77;0.77;;;0.30;99.90;;;;;;5042042;28;20467;-78
2023/12/02 00:28:07;;;;;;;1.57;1.47;;;0.30;99.90;;;;;;5038531;28;20454;-78
2023/12/02 00:30:35;;;;;;;8.90;2.53;;;0.30;99.90;;;;;;5047605;28;20447;-78
2023/12/02 00:33:02;;;;;;;5.10;1.47;;;0.40;99.90;;;;;;5035346;28;20442;-78
2023/12/02 00:35:28;;;;;;;6.43;1.63;;;0.40;99.90;;;;;;5035596;28;20947;-78
2023/12/02 00:37:55;;;;;;;2.13;0.70;;;0.50;99.90;;;;;;5037134;28;20814;-78
2023/12/02 00:40:22;;;;;;;4.53;0.83;;;0.50;99.90;;;;;;5037752;28;20486;-78
2023/12/02 00:42:50;;;;;;;16.10;3.77;;;0.50;99.90;;;;;;5039657;28;20454;-78
2023/12/02 00:45:17;;;;;;;1.90;1.73;;;0.40;99.90;;;;;;5039738;28;20895;-78
2023/12/02 00:47:45;;;;;;;2.03;1.73;;;0.40;99.90;;;;;;5038234;28;20489;-78
2023/12/02 00:50:12;;;;;;;1.80;1.20;;;0.40;99.90;;;;;;5037381;28;20439;-78
2023/12/02 00:52:38;;;;;;;1.67;1.57;;;0.40;99.90;;;;;;5036635;28;20455;-78
2023/12/02 00:55:06;;;;;;;3.40;2.10;;;0.40;99.90;;;;;;5038109;28;20807;-78
2023/12/02 00:57:33;;;;;;;6.30;2.27;;;0.40;99.90;;;;;;5036757;28;20844;-78
2023/12/02 01:00:00;;;;;;;0.80;0.80;;;0.40;99.90;;;;;;5036470;28;20483;-78
2023/12/02 01:02:26;;;;;;;0.97;0.90;;;0.40;99.90;;;;;;5036183;28;20454;-78
2023/12/02 01:04:54;;;;;;;1.67;1.57;;;0.40;99.90;;;;;;5035510;28;20939;-78
2023/12/02 01:07:21;;;;;;;4.63;1.40;;;0.40;99.90;;;;;;5035655;28;20482;-78
2023/12/02 01:09:48;;;;;;;1.60;1.50;;;0.40;99.90;;;;;;5035928;28;20443;-78
2023/12/02 01:12:15;;;;;;;0.53;0.53;;;0.40;99.90;;;;;;5034817;28;20442;-78
2023/12/02 01:14:41;;;;;;;1.63;1.53;;;0.40;99.90;;;;;;5035754;28;20447;-78
2023/12/02 01:17:08;;;;;;;2.37;1.23;;;0.30;99.90;;;;;;5035883;28;20471;-78
2023/12/02 01:19:35;;;;;;;2.00;1.17;;;0.40;99.90;;;;;;5035203;28;20486;-78
2023/12/02 01:22:03;;;;;;;1.80;0.97;;;0.40;99.90;;;;;;5034987;28;20450;-78
2023/12/02 01:24:29;;;;;;;6.33;2.80;;;0.30;99.90;;;;;;5034968;28;20478;-78
2023/12/02 01:26:56;;;;;;;2.27;1.50;;;0.40;99.90;;;;;;5035180;28;20467;-78
2023/12/02 01:29:23;;;;;;;1.17;0.97;;;0.30;99.90;;;;;;5035668;28;20443;-78
2023/12/02 01:31:49;;;;;;;1.97;0.97;;;0.30;99.90;;;;;;5034430;28;20830;-78
2023/12/02 01:34:16;;;;;;;2.10;1.23;;;0.40;99.90;;;;;;5035312;28;20454;-78
2023/12/02 01:36:42;;;;;;;1.10;0.77;;;0.40;99.90;;;;;;5035927;28;20466;-78
2023/12/02 01:39:12;;;;;;;1.10;1.00;;;0.40;99.90;;;;;;5035250;28;20474;-78
2023/12/02 01:41:38;;;;;;;2.30;1.60;;;0.40;99.90;;;;;;5035608;28;20449;-78
2023/12/02 01:44:05;;;;;;;0.40;0.40;;;0.40;99.90;;;;;;5035366;28;20962;-78
2023/12/02 01:46:32;;;;;;;0.63;0.63;;;0.40;99.90;;;;;;5035449;28;20474;-78
2023/12/02 01:49:00;;;;;;;2.60;2.40;;;0.30;99.90;;;;;;5035085;28;20447;-78
2023/12/02 01:51:27;;;;;;;1.27;1.17;;;0.30;99.90;;;;;;5035140;28;20443;-78
2023/12/02 01:53:54;;;;;;;1.00;1.00;;;0.20;99.90;;;;;;5035404;28;20454;-78
2023/12/02 01:56:22;;;;;;;3.07;1.47;;;0.20;99.90;;;;;;5034554;28;20471;-78
2023/12/02 01:58:49;;;;;;;0.60;0.60;;;0.20;99.90;;;;;;5034875;28;20474;-78
2023/12/02 02:01:16;;;;;;;3.50;0.93;;;0.20;99.90;;;;;;5035053;28;20438;-78
2023/12/02 02:03:43;;;;;;;0.70;0.67;;;0.20;99.90;;;;;;5035058;28;20789;-78
2023/12/02 02:06:11;;;;;;;2.00;1.90;;;0.20;99.90;;;;;;5034390;28;20491;-78
2023/12/02 02:08:38;;;;;;;1.83;1.73;;;0.20;99.90;;;;;;5035123;28;20450;-78
2023/12/02 02:11:04;;;;;;;0.87;0.87;;;0.20;99.90;;;;;;5035175;28;20450;-78
2023/12/02 02:13:33;;;;;;;0.60;0.60;;;0.20;99.90;;;;;;5034829;28;20447;-78
2023/12/02 02:16:00;;;;;;;1.67;0.80;;;0.20;99.90;;;;;;5034831;28;20458;-78
2023/12/02 02:18:29;;;;;;;1.67;1.30;;;0.20;99.90;;;;;;5034503;28;20450;-78
2023/12/02 02:20:55;;;;;;;3.67;1.93;;;0.20;99.90;;;;;;5034506;28;20493;-78
2023/12/02 02:23:24;;;;;;;6.33;2.37;;;0.10;99.90;;;;;;5035032;28;20446;-78
2023/12/02 02:25:52;;;;;;;1.70;1.60;;;0.10;99.90;;;;;;5038084;28;20504;-78
2023/12/02 02:28:21;;;;;;;0.70;0.57;;;0.10;99.90;;;;;;5038168;28;20453;-78
2023/12/02 02:30:48;;;;;;;0.60;0.60;;;0.10;99.90;;;;;;5038260;28;20446;-78
2023/12/02 02:33:14;;;;;;;1.27;1.27;;;0.10;99.90;;;;;;5038295;28;20446;-78
2023/12/02 02:35:41;;;;;;;1.10;1.10;;;0.10;99.90;;;;;;5037715;28;20490;-78
2023/12/02 02:38:07;;;;;;;0.77;0.60;;;0.10;99.90;;;;;;5038068;28;20447;-78
2023/12/02 02:40:36;;;;;;;3.97;1.27;;;0.00;99.90;;;;;;5037420;28;20907;-78
2023/12/02 02:43:03;;;;;;;3.37;2.10;;;0.00;99.90;;;;;;5037927;28;20454;-78
2023/12/02 02:45:30;;;;;;;9.30;1.90;;;0.00;99.90;;;;;;5037598;28;20947;-78
2023/12/02 02:47:56;;;;;;;0.83;0.83;;;0.00;99.90;;;;;;5037577;28;20443;-78
2023/12/02 02:50:23;;;;;;;7.20;1.83;;;-0.20;99.90;;;;;;5037451;28;20446;-78
2023/12/02 02:52:50;;;;;;;8.03;1.63;;;-0.10;99.90;;;;;;5037589;28;20446;-78
2023/12/02 02:55:16;;;;;;;9.23;1.93;;;-0.10;99.90;;;;;;5037467;28;20446;-78
2023/12/02 02:57:45;;;;;;;0.93;0.93;;;-0.10;99.90;;;;;;5038307;28;20454;-78
2023/12/02 03:00:13;;;;;;;0.77;0.77;;;-0.20;99.90;;;;;;5036699;28;20474;-78
2023/12/02 03:02:40;;;;;;;0.70;0.67;;;-0.20;99.90;;;;;;5037111;28;20450;-78
2023/12/02 03:05:07;;;;;;;0.90;0.90;;;-0.20;99.90;;;;;;5036962;28;20443;-78
2023/12/02 03:07:34;;;;;;;1.53;1.43;;;-0.20;99.90;;;;;;5036604;28;20474;-78
2023/12/02 03:10:01;;;;;;;4.30;1.60;;;-0.20;99.90;;;;;;5036844;28;20443;-78
2023/12/02 03:12:28;;;;;;;1.00;0.93;;;-0.20;99.90;;;;;;5036431;28;20966;-78
2023/12/02 03:14:56;;;;;;;3.90;0.80;;;-0.20;99.90;;;;;;5036296;28;20963;-78
2023/12/02 03:17:23;;;;;;;1.10;0.90;;;-0.30;99.90;;;;;;5036802;28;20458;-78
2023/12/02 03:19:50;;;;;;;1.73;0.80;;;-0.30;99.90;;;;;;5036451;28;20486;-78
2023/12/02 03:22:17;;;;;;;2.53;1.37;;;-0.40;99.90;;;;;;5036030;28;21031;-78
2023/12/02 03:24:43;;;;;;;2.77;2.43;;;-0.40;99.90;;;;;;5036447;28;20451;-78
2023/12/02 03:27:11;;;;;;;1.23;0.87;;;-0.40;99.90;;;;;;5036276;28;20475;-78
2023/12/02 03:29:37;;;;;;;0.57;0.50;;;-0.40;99.90;;;;;;5036370;28;20453;-78
2023/12/02 03:32:06;;;;;;;13.57;0.90;;;-0.30;99.90;;;;;;5036347;28;20435;-78
2023/12/02 03:34:33;;;;;;;1.37;1.13;;;-0.30;99.90;;;;;;5035849;28;20446;-78
2023/12/02 03:37:00;;;;;;;0.30;0.30;;;-0.30;99.90;;;;;;5036184;28;20466;-78
2023/12/02 03:39:26;;;;;;;1.80;1.70;;;-0.40;99.90;;;;;;5035742;28;20940;-78
2023/12/02 03:41:53;;;;;;;1.13;0.67;;;-0.40;99.90;;;;;;5036447;28;20538;-78
2023/12/02 03:44:20;;;;;;;4.33;1.07;;;-0.50;99.90;;;;;;5035700;28;20458;-78
2023/12/02 03:46:46;;;;;;;3.33;1.37;;;-0.50;99.90;;;;;;5035703;28;20462;-78
2023/12/02 03:49:14;;;;;;;1.10;1.07;;;-0.50;99.90;;;;;;5036143;28;20450;-78
2023/12/02 03:51:41;;;;;;;1.27;0.77;;;-0.40;99.90;;;;;;5036534;28;20447;-78
2023/12/02 03:54:08;;;;;;;0.80;0.60;;;-0.30;99.90;;;;;;5037939;28;20447;-78
2023/12/02 03:56:35;;;;;;;1.47;1.20;;;-0.30;99.90;;;;;;5037394;28;20466;-78
2023/12/02 03:59:02;;;;;;;0.50;0.40;;;-0.30;99.90;;;;;;5037629;28;20450;-78
2023/12/02 04:01:28;;;;;;;4.57;1.20;;;-0.30;99.90;;;;;;5037243;28;20486;-78
2023/12/02 04:03:55;;;;;;;0.90;0.87;;;-0.30;99.90;;;;;;5036835;28;20454;-78
2023/12/02 04:06:23;;;;;;;1.53;1.50;;;-0.40;99.90;;;;;;5036912;28;20502;-78
2023/12/02 04:08:50;;;;;;;1.57;0.60;;;-0.30;99.90;;;;;;5037171;28;20450;-78
2023/12/02 04:11:16;;;;;;;1.70;1.60;;;-0.30;99.90;;;;;;5036866;28;20482;-78
2023/12/02 04:13:43;;;;;;;0.57;0.57;;;-0.30;99.90;;;;;;5036728;28;20793;-78
2023/12/02 04:16:10;;;;;;;2.00;1.90;;;-0.20;99.90;;;;;;5036833;28;20490;-78
2023/12/02 04:18:37;;;;;;;0.87;0.30;;;-0.20;99.90;;;;;;5036277;28;20446;-78
2023/12/02 04:21:08;;;;;;;3.03;2.07;;;-0.20;99.90;;;;;;5036438;28;20513;-78
2023/12/02 04:23:36;;;;;;;5.53;1.60;;;-0.20;99.90;;;;;;5036209;28;20427;-78
2023/12/02 04:26:02;;;;;;;0.87;0.63;;;-0.20;99.90;;;;;;5035973;28;20467;-78
2023/12/02 04:28:29;;;;;;;0.40;0.40;;;-0.20;99.90;;;;;;5035784;28;20820;-78
2023/12/02 04:30:56;;;;;;;1.03;0.57;;;-0.20;99.90;;;;;;5035935;28;20443;-77
2023/12/02 04:33:23;;;;;;;0.50;0.50;;;-0.20;99.90;;;;;;5035456;28;20454;-77
2023/12/02 04:35:50;;;;;;;2.83;0.73;;;-0.20;99.90;;;;;;5035938;28;20910;-78
2023/12/02 04:38:17;;;;;;;0.83;0.60;;;-0.20;99.90;;;;;;5035517;28;20438;-78
2023/12/02 04:40:45;;;;;;;1.57;1.00;;;-0.20;99.90;;;;;;5035679;28;20492;-77
2023/12/02 04:43:12;;;;;;;4.30;1.57;;;-0.20;99.90;;;;;;5035819;28;20447;-77
2023/12/02 04:45:39;;;;;;;0.53;0.53;;;-0.20;99.90;;;;;;5035107;28;20462;-78
2023/12/02 04:48:06;;;;;;;0.30;0.30;;;-0.20;99.90;;;;;;5034429;28;20965;-78
2023/12/02 04:50:32;;;;;;;1.20;0.67;;;-0.20;99.90;;;;;;5035495;28;20504;-78
2023/12/02 04:52:59;;;;;;;0.40;0.30;;;-0.20;99.90;;;;;;5035839;28;20453;-77
2023/12/02 04:55:26;;;;;;;0.37;0.37;;;-0.30;99.90;;;;;;5035590;28;20435;-77
2023/12/02 04:57:54;;;;;;;3.13;1.20;;;-0.30;99.90;;;;;;5035035;28;20447;-78
2023/12/02 05:00:21;;;;;;;0.37;0.37;;;-0.40;99.90;;;;;;5034591;28;20486;-78
2023/12/02 05:02:47;;;;;;;0.30;0.20;;;-0.40;99.90;;;;;;5034375;28;20445;-78
2023/12/02 05:05:14;;;;;;;1.30;1.20;;;-0.40;99.90;;;;;;5034271;28;20427;-77
2023/12/02 05:07:41;;;;;;;2.10;0.97;;;-0.40;99.90;;;;;;5014382;28;20517;-77
2023/12/02 05:10:09;;;;;;;0.90;0.73;;;-0.40;99.90;;;;;;5014604;28;20471;-78
2023/12/02 05:12:36;;;;;;;0.93;0.93;;;-0.40;99.90;;;;;;5014277;28;20872;-78
2023/12/02 05:15:05;;;;;;;0.60;0.50;;;-0.50;99.90;;;;;;5014475;28;20448;-77
2023/12/02 05:17:32;;;;;;;6.93;1.37;;;-0.50;99.90;;;;;;5014412;28;20852;-77
2023/12/02 05:19:59;;;;;;;0.83;0.57;;;-0.50;99.90;;;;;;5013860;28;21015;-77
2023/12/02 05:22:25;;;;;;;1.03;0.87;;;-0.50;99.90;;;;;;5014470;28;20450;-77
2023/12/02 05:24:52;;;;;;;4.17;0.93;;;-0.40;99.90;;;;;;5014412;28;20455;-77
2023/12/02 05:27:19;;;;;;;2.40;0.60;;;-0.40;99.90;;;;;;5014425;28;20471;-77
2023/12/02 05:29:45;;;;;;;0.80;0.80;;;-0.40;99.90;;;;;;5014214;28;20452;-77
2023/12/02 05:32:13;;;;;;;0.60;0.47;;;-0.40;99.90;;;;;;5014236;28;20455;-77
2023/12/02 05:34:40;;;;;;;0.33;0.33;;;-0.40;99.90;;;;;;5014215;28;20447;-77
2023/12/02 05:37:07;;;;;;;0.70;0.60;;;-0.40;99.90;;;;;;5013921;28;20458;-77
2023/12/02 05:39:35;;;;;;;1.23;0.50;;;-0.40;99.90;;;;;;5014086;28;20486;-77
2023/12/02 05:42:01;;;;;;;2.83;0.50;;;-0.40;99.90;;;;;;5013954;28;20483;-77
2023/12/02 05:44:28;;;;;;;2.70;0.60;;;-0.40;99.90;;;;;;5013824;28;20983;-77
2023/12/02 05:46:54;;;;;;;1.53;0.73;;;-0.40;99.90;;;;;;5014262;28;20850;-78
2023/12/02 05:49:22;;;;;;;1.00;0.70;;;-0.40;99.90;;;;;;5014129;28;20866;-77
2023/12/02 05:51:49;;;;;;;1.33;0.57;;;-0.40;99.90;;;;;;5014020;28;20447;-77
2023/12/02 05:54:16;;;;;;;0.70;0.70;;;-0.40;99.90;;;;;;5013828;28;20869;-78
2023/12/02 05:56:42;;;;;;;0.63;0.57;;;-0.50;99.90;;;;;;5014067;28;20474;-77
2023/12/02 05:59:09;;;;;;;0.50;0.30;;;-0.50;99.90;;;;;;5017183;28;20443;-77
2023/12/02 06:01:36;;;;;;;1.90;1.80;;;-0.50;99.90;;;;;;5017967;28;20494;-78
2023/12/02 06:04:03;;;;;;;0.40;0.40;;;-0.50;99.90;;;;;;5017920;28;20455;-78
2023/12/02 06:06:31;;;;;;;0.87;0.87;;;-0.40;99.90;;;;;;5027853;28;21117;-78
2023/12/02 06:08:58;;;;;;;0.67;0.50;;;-0.40;99.90;;;;;;5038597;28;20497;-78
2023/12/02 06:11:24;;;;;;;3.23;1.27;;;-0.40;99.90;;;;;;5039537;28;20445;-78
2023/12/02 06:13:51;;;;;;;0.50;0.50;;;-0.50;99.90;;;;;;5039271;28;20453;-78
2023/12/02 06:16:18;;;;;;;0.93;0.60;;;-0.40;99.90;;;;;;5039388;28;20466;-78
2023/12/02 06:18:44;;;;;;;4.23;1.87;;;-0.40;99.90;;;;;;5039285;28;20820;-78
2023/12/02 06:21:12;;;;;;;1.13;0.40;;;-0.40;99.90;;;;;;5038950;28;21016;-78
2023/12/02 06:23:40;;;;;;;0.83;0.70;;;-0.40;99.90;;;;;;5038924;28;20447;-78
2023/12/02 06:26:07;;;;;;;0.90;0.90;;;-0.50;99.90;;;;;;5039139;28;20473;-78
2023/12/02 06:28:34;;;;;;;1.23;0.73;;;-0.50;99.90;;;;;;5038830;28;20453;-78
2023/12/02 06:31:00;;;;;;;2.80;0.87;;;-0.50;99.90;;;;;;5038484;28;20935;-78
2023/12/02 06:33:27;;;;;;;0.90;0.43;;;-0.60;99.90;;;;;;5038731;28;20473;-78
2023/12/02 06:36:08;;;;;;;;;;;;;;;;;;;;;
2023/12/02 06:38:35;;;;;;;0.83;0.83;;;-0.60;99.90;;;;;;5039803;28;20413;-78
2023/12/02 06:41:04;;;;;;;0.60;0.47;;;-0.60;99.90;;;;;;5039405;28;20492;-78
2023/12/02 06:43:30;;;;;;;0.93;0.90;;;-0.60;99.90;;;;;;5038439;28;20446;-78
2023/12/02 06:45:57;;;;;;;0.90;0.87;;;-0.60;99.90;;;;;;5039776;28;20473;-78
2023/12/02 06:48:24;;;;;;;1.97;1.50;;;-0.70;99.90;;;;;;5038828;28;20931;-78
2023/12/02 06:50:51;;;;;;;0.50;0.50;;;-0.70;99.90;;;;;;5038878;28;20471;-78
2023/12/02 06:53:17;;;;;;;3.63;1.10;;;-0.80;99.90;;;;;;5039169;28;20462;-78
2023/12/02 06:55:44;;;;;;;1.30;0.60;;;-0.70;99.90;;;;;;5039072;28;20462;-78
2023/12/02 06:58:12;;;;;;;2.50;0.93;;;-0.70;99.90;;;;;;5039837;28;20442;-78
2023/12/02 07:00:39;;;;;;;1.57;1.10;;;-0.70;99.90;;;;;;5037770;28;20482;-78
2023/12/02 07:03:08;;;;;;;1.53;0.60;;;-0.70;99.90;;;;;;5037764;28;20947;-78
2023/12/02 07:05:35;;;;;;;2.67;1.03;;;-0.70;99.90;;;;;;5037669;28;20501;-78
2023/12/02 07:08:02;;;;;;;0.93;0.90;;;-0.70;99.90;;;;;;5037483;28;20978;-78
2023/12/02 07:10:28;;;;;;;0.80;0.80;;;-0.60;99.90;;;;;;5036999;28;20451;-78
2023/12/02 07:12:55;;;;;;;1.50;1.40;;;-0.70;99.90;;;;;;5038119;28;20826;-78
2023/12/02 07:15:23;;;;;;;1.87;1.10;;;-0.70;99.90;;;;;;5038065;28;20525;-78
2023/12/02 07:17:50;;;;;;;2.30;1.10;;;-0.70;99.90;;;;;;5037758;28;20439;-78
2023/12/02 07:20:17;;;;;;;1.40;1.30;;;-0.70;99.90;;;;;;5037994;28;20442;-78
2023/12/02 07:22:43;;;;;;;0.53;0.53;;;-0.80;99.90;;;;;;5038108;28;20447;-78
2023/12/02 07:25:10;;;;;;;0.53;0.53;;;-0.80;99.90;;;;;;5038647;28;20457;-78
2023/12/02 07:27:37;;;;;;;0.80;0.80;;;-0.70;99.90;;;;;;5039460;28;20446;-78
2023/12/02 07:30:04;;;;;;;1.30;0.67;;;-0.70;99.90;;;;;;5039107;28;20936;-78
2023/12/02 07:32:32;;;;;;;0.53;0.53;;;-0.80;99.90;;;;;;5038729;28;20526;-78
2023/12/02 07:34:59;;;;;;;1.03;0.80;;;-0.80;99.90;;;;;;5038941;28;20901;-78
2023/12/02 07:37:25;;;;;;;5.90;1.30;;;-0.80;99.90;;;;;;5038319;28;20537;-78
2023/12/02 07:39:52;;;;;;;0.43;0.43;;;-0.80;99.90;;;;;;5038593;28;20447;-78
2023/12/02 07:42:19;;;;;;;4.17;0.93;;;-0.80;99.90;;;;;;5037961;28;20521;-78
2023/12/02 07:44:45;;;;;;;1.93;0.60;;;-0.70;99.90;;;;;;5038391;28;20477;-78
2023/12/02 07:47:12;;;;;;;4.03;1.27;;;-0.70;99.90;;;;;;5038237;28;20463;-78
2023/12/02 07:49:40;;;;;;;1.33;0.60;;;-0.70;99.90;;;;;;5039180;28;20450;-79
2023/12/02 07:52:07;;;;;;;1.40;1.30;;;-0.70;99.90;;;;;;5038216;28;20443;-78
2023/12/02 07:54:34;;;;;;;1.10;0.70;;;-0.60;99.90;;;;;;5038006;28;20943;-78
2023/12/02 07:57:00;;;;;;;1.67;0.63;;;-0.60;99.90;;;;;;5037647;28;20998;-78
2023/12/02 07:59:27;;;;;;;0.97;0.80;;;-0.60;99.90;;;;;;5038722;28;20529;-79
2023/12/02 08:01:53;;;;;;;1.10;1.10;;;-0.60;99.90;;;;;;5040058;28;20489;-79
2023/12/02 08:04:20;;;;;;;2.00;0.80;;;-0.60;99.90;;;;;;5039888;28;20450;-79
2023/12/02 08:06:48;;;;;;;1.87;0.90;;;-0.70;99.90;;;;;;5039924;28;20485;-79
2023/12/02 08:09:15;;;;;;;0.60;0.60;;;-0.70;99.90;;;;;;5040289;28;20458;-79
2023/12/02 08:11:42;;;;;;;0.77;0.77;;;-0.70;99.90;;;;;;5039817;28;20443;-79
2023/12/02 08:14:09;;;;;;;0.40;0.40;;;-0.70;99.90;;;;;;5040410;28;20449;-79
2023/12/02 08:16:35;;;;;;;1.03;1.03;;;-0.70;99.90;;;;;;5040631;28;20478;-79
2023/12/02 08:19:02;;;;;;;5.67;1.13;;;-0.80;99.90;;;;;;5040262;28;20450;-79
2023/12/02 08:21:29;;;;;;;3.93;1.00;;;-0.90;99.90;;;;;;5039682;28;20580;-79
2023/12/02 08:23:57;;;;;;;6.97;1.77;;;-0.80;99.90;;;;;;5040141;28;20469;-79
2023/12/02 08:26:24;;;;;;;1.57;0.90;;;-0.90;99.90;;;;;;5041353;28;20473;-79
2023/12/02 08:28:51;;;;;;;0.40;0.37;;;-0.90;99.90;;;;;;5040830;28;20450;-79
2023/12/02 08:31:17;;;;;;;0.50;0.50;;;-0.90;99.90;;;;;;5040420;28;20446;-79
2023/12/02 08:33:44;;;;;;;0.67;0.67;;;-0.80;99.90;;;;;;5040799;28;20443;-79
2023/12/02 08:36:11;;;;;;;0.43;0.43;;;-0.80;99.90;;;;;;5040014;28;20466;-79
2023/12/02 08:38:38;;;;;;;1.03;0.93;;;-0.80;99.90;;;;;;5040435;28;20442;-79
2023/12/02 08:41:07;;;;;;;0.30;0.30;;;-0.80;99.90;;;;;;5040300;28;20482;-79
2023/12/02 08:43:33;;;;;;;0.90;0.53;;;-0.80;99.90;;;;;;5040051;28;20435;-79
2023/12/02 08:46:00;;;;;;;6.53;2.40;;;-0.80;99.90;;;;;;5040217;28;20459;-79
2023/12/02 08:48:27;;;;;;;1.37;1.30;;;-0.90;99.90;;;;;;5041890;28;20447;-79
2023/12/02 08:50:54;;;;;;;0.70;0.70;;;-0.90;99.90;;;;;;5041454;28;20956;-78
2023/12/02 08:53:20;;;;;;;1.00;0.67;;;-0.90;99.90;;;;;;5038479;28;20947;-78
2023/12/02 08:55:47;;;;;;;1.17;0.97;;;-0.90;99.90;;;;;;5038387;28;20478;-78
2023/12/02 08:58:15;;;;;;;0.90;0.50;;;-0.90;99.90;;;;;;5038714;28;20442;-78
2023/12/02 09:00:42;;;;;;;0.30;0.30;;;-0.80;99.90;;;;;;5038853;28;20447;-78
2023/12/02 09:03:08;;;;;;;2.07;1.93;;;-0.80;99.90;;;;;;5039011;28;20485;-79
2023/12/02 09:05:35;;;;;;;1.83;1.73;;;-0.90;99.90;;;;;;5040710;28;20482;-79
2023/12/02 09:08:02;;;;;;;0.60;0.60;;;-0.80;99.90;;;;;;5039964;28;20769;-79
2023/12/02 09:10:28;;;;;;;0.53;0.50;;;-0.90;99.90;;;;;;5040906;28;20454;-79
2023/12/02 09:12:55;;;;;;;0.60;0.60;;;-0.80;99.90;;;;;;5039438;28;20450;-79
2023/12/02 09:15:40;;;;;;;1.00;0.90;;;-0.80;99.90;;;;;;5039844;28;20828;-79
2023/12/02 09:18:09;;;;;;;1.03;0.60;;;-0.80;99.90;;;;;;5039033;28;20431;-80
2023/12/02 09:20:43;;;;;;;2.20;1.00;;;-0.70;99.90;;;;;;5039865;28;20446;-79
2023/12/02 09:23:11;;;;;;;4.63;0.73;;;-0.70;99.90;;;;;;5038920;28;20466;-79
2023/12/02 09:25:39;;;;;;;2.40;2.20;;;-0.70;99.90;;;;;;5039386;28;20987;-79
2023/12/02 09:28:20;;;;;;;2.30;1.00;;;-0.70;99.90;;;;;;5038871;28;20442;-79
2023/12/02 09:30:54;;;;;;;1.53;1.43;;;-0.70;99.90;;;;;;5039145;28;20426;-79
2023/12/02 09:33:21;;;;;;;2.43;0.83;;;-0.70;99.90;;;;;;5038738;28;20448;-79
2023/12/02 09:35:53;;;;;;;1.03;0.93;;;-0.60;99.90;;;;;;5038089;28;20449;-79
2023/12/02 09:38:19;;;;;;;3.13;0.70;;;-0.60;99.90;;;;;;5038197;28;20435;-79
2023/12/02 09:41:16;;;;;;;1.33;1.20;;;-0.60;99.90;;;;;;5038381;28;20412;-79
2023/12/02 09:43:52;;;;;;;1.03;0.50;;;-0.70;99.90;;;;;;5038265;28;20784;-79
2023/12/02 09:46:33;;;;;;;1.67;1.57;;;-0.70;99.90;;;;;;5038386;28;20457;-79
2023/12/02 09:49:23;;;;;;;0.40;0.40;;;-0.60;99.90;;;;;;5037822;28;20435;-81
2023/12/02 09:52:07;;;;;;;3.97;1.43;;;-0.60;99.90;;;;;;5037872;28;20424;-82
2023/12/02 09:54:44;;;;;;;1.90;1.80;;;-0.60;99.90;;;;;;5037658;28;20426;-79
2023/12/02 09:57:17;;;;;;;0.43;0.43;;;-0.60;99.90;;;;;;5037471;28;20454;-79
2023/12/02 10:00:04;;;;;;;1.03;0.77;;;-0.60;99.90;;;;;;5037727;28;20923;-79
2023/12/02 10:02:44;;;;;;;5.83;0.57;;;-0.60;99.90;;;;;;5038145;28;20495;-79
2023/12/02 10:05:12;;;;;;;0.80;0.80;;;-0.60;99.90;;;;;;5037623;28;20461;-79
2023/12/02 10:07:52;;;;;;;2.07;1.00;;;-0.60;99.90;;;;;;5037595;28;20437;-79
2023/12/02 10:10:23;;;;;;;1.00;0.50;;;-0.50;99.90;;;;;;5038071;28;20449;-79
2023/12/02 10:13:04;;;;;;;4.53;0.90;;;-0.60;99.90;;;;;;5039803;28;20513;-79
2023/12/02 10:15:35;;;;;;;4.63;1.37;;;-0.60;99.90;;;;;;5039628;28;20431;-79
2023/12/02 10:18:11;;;;;;;2.67;2.43;;;-0.50;99.90;;;;;;5039527;28;20437;-79
2023/12/02 10:20:41;;;;;;;1.53;0.97;;;-0.60;99.90;;;;;;5039944;28;20873;-79
2023/12/02 10:23:26;;;;;;;0.80;0.60;;;-0.50;99.90;;;;;;5040637;28;20486;-80
2023/12/02 10:26:05;;;;;;;0.93;0.87;;;-0.50;99.90;;;;;;5038854;28;20463;-80
2023/12/02 10:28:44;;;;;;;1.17;1.07;;;-0.50;99.90;;;;;;5038890;28;20427;-80
2023/12/02 10:31:13;;;;;;;1.00;1.00;;;-0.50;99.90;;;;;;5038700;28;20434;-80
2023/12/02 10:33:54;;;;;;;2.17;1.00;;;-0.60;99.90;;;;;;5038802;28;20442;-80
2023/12/02 10:36:22;;;;;;;3.70;1.90;;;-0.60;99.90;;;;;;5038716;28;20478;-79
2023/12/02 10:39:09;;;;;;;0.50;0.50;;;-0.70;99.90;;;;;;5038326;28;20853;-80
2023/12/02 10:41:42;;;;;;;1.17;1.07;;;-0.80;99.90;;;;;;5038398;28;20481;-79
2023/12/02 10:44:09;;;;;;;2.37;1.47;;;-0.70;99.90;;;;;;5054952;28;20435;-80
2023/12/02 10:46:37;;;;;;;3.43;1.30;;;-0.60;99.90;;;;;;5044375;28;20466;-80
2023/12/02 10:49:06;;;;;;;0.47;0.47;;;-0.60;99.90;;;;;;5038571;28;20453;-79
2023/12/02 10:51:40;;;;;;;2.33;1.03;;;-0.60;99.90;;;;;;5037429;28;20430;-79
2023/12/02 10:54:08;;;;;;;0.70;0.70;;;-0.60;99.90;;;;;;5037651;28;20415;-80
2023/12/02 10:56:39;;;;;;;2.40;1.10;;;-0.50;99.90;;;;;;5037921;28;20466;-79
2023/12/02 10:59:07;;;;;;;3.13;0.87;;;-0.60;99.90;;;;;;5037692;28;20415;-84
2023/12/02 11:01:40;;;;;;;0.30;0.30;;;-0.60;99.90;;;;;;5037843;28;20458;-81
2023/12/02 11:04:18;;;;;;;2.13;0.63;;;-0.60;99.90;;;;;;5038754;28;20438;-81
2023/12/02 11:06:51;;;;;;;0.60;0.60;;;-0.60;99.90;;;;;;5042618;28;20478;-81
2023/12/02 11:09:22;;;;;;;0.50;0.50;;;-0.50;99.90;;;;;;5043905;28;20824;-81
2023/12/02 11:11:57;;;;;;;2.83;1.37;;;-0.50;99.90;;;;;;5041993;28;20408;-79
2023/12/02 11:14:25;;;;;;;4.00;1.17;;;-0.50;99.90;;;;;;5039998;28;20435;-79
2023/12/02 11:17:07;;;;;;;0.63;0.63;;;-0.50;99.90;;;;;;5039946;28;20466;-80
2023/12/02 11:19:57;;;;;;;0.50;0.50;;;-0.50;99.90;;;;;;5040461;28;20802;-79
2023/12/02 11:22:55;;;;;;;1.33;1.33;;;-0.50;99.90;;;;;;5038768;28;20486;-79
2023/12/02 11:25:32;;;;;;;0.80;0.50;;;-0.50;99.90;;;;;;5039487;28;20457;-78
2023/12/02 11:28:04;;;;;;;0.50;0.50;;;-0.50;99.90;;;;;;5040019;28;20438;-79
2023/12/02 11:30:57;;;;;;;0.63;0.63;;;-0.60;99.90;;;;;;5039077;28;20430;-78
2023/12/02 11:33:36;;;;;;;0.80;0.53;;;-0.70;99.90;;;;;;5034551;28;20451;-79
2023/12/02 11:36:13;;;;;;;0.57;0.50;;;-0.80;99.90;;;;;;5038673;28;20464;-79
2023/12/02 11:38:52;;;;;;;2.90;0.73;;;-0.70;99.90;;;;;;5039258;28;20831;-79
2023/12/02 11:41:32;;;;;;;0.83;0.83;;;-0.70;99.90;;;;;;5039430;28;20427;-79
2023/12/02 11:44:10;;;;;;;0.30;0.30;;;-0.70;99.90;;;;;;5039313;28;20836;-79
2023/12/02 11:47:01;;;;;;;1.30;0.80;;;-0.70;99.90;;;;;;5039401;28;20821;-79
2023/12/02 11:49:37;;;;;;;1.53;1.27;;;-0.80;99.90;;;;;;5039022;28;20459;-79
2023/12/02 11:52:16;;;;;;;0.50;0.50;;;-0.70;99.90;;;;;;5038356;28;20422;-79
2023/12/02 11:55:05;;;;;;;1.00;0.93;;;-0.80;99.90;;;;;;5041385;28;20406;-79
2023/12/02 11:57:40;;;;;;;0.63;0.63;;;-0.80;99.90;;;;;;5039273;28;20465;-79
2023/12/02 12:00:09;;;;;;;0.77;0.77;;;-0.90;99.90;;;;;;5038405;28;20915;-79
2023/12/02 12:02:55;;;;;;;1.70;0.67;;;-0.90;99.90;;;;;;5038730;28;20522;-81
2023/12/02 12:05:37;;;;;;;0.30;0.30;;;-0.90;99.90;;;;;;5038267;28;20435;-79
2023/12/02 12:08:12;;;;;;;0.47;0.47;;;-0.90;99.90;;;;;;5039123;28;20443;-79
2023/12/02 12:10:40;;;;;;;0.83;0.83;;;-0.90;99.90;;;;;;5038968;28;20410;-79
2023/12/02 12:13:09;;;;;;;0.30;0.30;;;-0.90;99.90;;;;;;5039089;28;20466;-79
2023/12/02 12:15:37;;;;;;;0.70;0.43;;;-0.90;99.90;;;;;;5038768;28;20469;-79
2023/12/02 12:18:04;;;;;;;4.73;1.17;;;-0.90;99.90;;;;;;5038952;28;20451;-79
2023/12/02 12:20:32;;;;;;;0.77;0.60;;;-1.00;99.90;;;;;;5038309;28;20935;-79
2023/12/02 12:22:59;;;;;;;2.50;1.13;;;-1.00;99.90;;;;;;5038611;28;20486;-79
2023/12/02 12:25:29;;;;;;;1.63;1.07;;;-1.00;99.90;;;;;;5038927;28;20483;-79
2023/12/02 12:28:02;;;;;;;1.17;0.73;;;-1.00;99.90;;;;;;5039549;28;20468;-79
2023/12/02 12:30:41;;;;;;;1.23;1.13;;;-1.00;99.90;;;;;;5038154;28;20443;-79
2023/12/02 12:33:11;;;;;;;1.13;0.70;;;-1.00;99.90;;;;;;5039749;28;20425;-79
2023/12/02 12:35:38;;;;;;;1.87;1.70;;;-1.00;99.90;;;;;;5041095;28;20803;-79
2023/12/02 12:38:05;;;;;;;0.67;0.57;;;-1.00;99.90;;;;;;5042948;28;20520;-81
2023/12/02 12:40:36;;;;;;;0.67;0.67;;;-1.00;99.90;;;;;;5040682;28;20893;-80
2023/12/02 12:43:03;;;;;;;1.17;0.80;;;-1.00;99.90;;;;;;5040945;28;20502;-80
2023/12/02 12:45:33;;;;;;;6.80;2.03;;;-0.90;99.90;;;;;;5044658;28;20447;-80
2023/12/02 12:48:00;;;;;;;6.50;1.17;;;-0.90;99.90;;;;;;5042630;28;20455;-80
2023/12/02 12:50:31;;;;;;;0.50;0.30;;;-0.80;99.90;;;;;;5042856;28;20474;-80
2023/12/02 12:53:09;;;;;;;3.50;1.33;;;-0.90;99.90;;;;;;5042458;28;20419;-80
2023/12/02 12:55:38;;;;;;;1.13;1.10;;;-0.90;99.90;;;;;;5042106;28;20451;-80
2023/12/02 12:58:07;;;;;;;0.57;0.40;;;-0.80;99.90;;;;;;5041312;28;20949;-80
2023/12/02 13:00:36;;;;;;;0.40;0.40;;;-0.80;99.90;;;;;;5043765;28;20435;-80